sensor_id;sensor_type;location;lat;lon;timestamp;temperature;humidity
9448;DHT22;4762;48.128;11.376;2023-07-31T00:01:58;16.10;99.90
9448;DHT22;4762;48.128;11.376;2023-07-31T00:04:00;16.00;99.90
9448;DHT22;4762;48.128;11.376;2023-07-31T00:06:02;16.00;99.90
9448;DHT22;4762;48.128;11.376;2023-07-31T00:08:09;16.00;99.90
9448;DHT22;4762;48.128;11.376;2023-07-31T00:10:12;16.00;99.90
9448;DHT22;4762;48.128;11.376;2023-07-31T00:12:15;16.00;99.90
9448;DHT22;4762;48.128;11.376;2023-07-31T00:14:19;16.00;99.90
9448;DHT22;4762;48.128;11.376;2023-07-31T00:16:21;16.00;99.90
9448;DHT22;4762;48.128;11.376;2023-07-31T00:18:24;16.10;99.90
9448;DHT22;4762;48.128;11.376;2023-07-31T00:20:26;16.10;99.90
9448;DHT22;4762;48.128;11.376;2023-07-31T00:22:28;16.10;99.90
9448;DHT22;4762;48.128;11.376;2023-07-31T00:24:32;16.20;99.90
9448;DHT22;4762;48.128;11.376;2023-07-31T00:26:36;16.20;99.90
9448;DHT22;4762;48.128;11.376;2023-07-31T00:28:39;16.20;99.90
9448;DHT22;4762;48.128;11.376;2023-07-31T00:30:41;16.20;99.90
9448;DHT22;4762;48.128;11.376;2023-07-31T00:32:44;16.20;99.90
9448;DHT22;4762;48.128;11.376;2023-07-31T00:34:47;16.20;99.90
9448;DHT22;4762;48.128;11.376;2023-07-31T00:36:53;16.10;99.90
9448;DHT22;4762;48.128;11.376;2023-07-31T00:38:55;16.10;99.90
9448;DHT22;4762;48.128;11.376;2023-07-31T00:40:58;16.10;99.90
9448;DHT22;4762;48.128;11.376;2023-07-31T00:43:01;16.10;99.90
9448;DHT22;4762;48.128;11.376;2023-07-31T00:45:04;16.00;99.90
9448;DHT22;4762;48.128;11.376;2023-07-31T00:47:07;16.00;99.90
9448;DHT22;4762;48.128;11.376;2023-07-31T00:49:09;16.00;99.90
9448;DHT22;4762;48.128;11.376;2023-07-31T00:51:12;16.00;99.90
9448;DHT22;4762;48.128;11.376;2023-07-31T00:53:15;16.00;99.90
9448;DHT22;4762;48.128;11.376;2023-07-31T00:55:18;16.00;99.90
9448;DHT22;4762;48.128;11.376;2023-07-31T00:57:20;16.00;99.90
9448;DHT22;4762;48.128;11.376;2023-07-31T00:59:22;16.10;99.90
9448;DHT22;4762;48.128;11.376;2023-07-31T01:01:24;16.10;99.90
9448;DHT22;4762;48.128;11.376;2023-07-31T01:03:27;16.10;99.90
9448;DHT22;4762;48.128;11.376;2023-07-31T01:05:35;16.10;99.90
9448;DHT22;4762;48.128;11.376;2023-07-31T01:07:49;16.10;99.90
9448;DHT22;4762;48.128;11.376;2023-07-31T01:09:59;16.10;99.90
9448;DHT22;4762;48.128;11.376;2023-07-31T01:12:03;16.10;99.90
9448;DHT22;4762;48.128;11.376;2023-07-31T01:14:04;16.00;99.90
9448;DHT22;4762;48.128;11.376;2023-07-31T01:16:07;16.00;99.90
9448;DHT22;4762;48.128;11.376;2023-07-31T01:18:09;16.00;99.90
9448;DHT22;4762;48.128;11.376;2023-07-31T01:20:14;16.00;99.90
9448;DHT22;4762;48.128;11.376;2023-07-31T01:22:23;16.00;99.90
9448;DHT22;4762;48.128;11.376;2023-07-31T01:24:28;16.00;99.90
9448;DHT22;4762;48.128;11.376;2023-07-31T01:26:28;16.00;99.90
9448;DHT22;4762;48.128;11.376;2023-07-31T01:28:33;16.00;99.90
9448;DHT22;4762;48.128;11.376;2023-07-31T01:30:33;16.00;99.90
9448;DHT22;4762;48.128;11.376;2023-07-31T01:32:36;16.00;99.90
9448;DHT22;4762;48.128;11.376;2023-07-31T01:34:38;16.00;99.90
9448;DHT22;4762;48.128;11.376;2023-07-31T01:36:40;16.00;99.90
9448;DHT22;4762;48.128;11.376;2023-07-31T01:38:42;16.00;99.90
9448;DHT22;4762;48.128;11.376;2023-07-31T01:40:44;16.00;99.90
9448;DHT22;4762;48.128;11.376;2023-07-31T01:42:47;16.00;99.90
9448;DHT22;4762;48.128;11.376;2023-07-31T01:44:49;16.00;99.90
9448;DHT22;4762;48.128;11.376;2023-07-31T01:46:51;16.00;99.90
9448;DHT22;4762;48.128;11.376;2023-07-31T01:48:54;16.00;99.90
9448;DHT22;4762;48.128;11.376;2023-07-31T01:50:59;15.90;99.90
9448;DHT22;4762;48.128;11.376;2023-07-31T01:52:59;15.90;99.90
9448;DHT22;4762;48.128;11.376;2023-07-31T01:55:01;15.90;99.90
9448;DHT22;4762;48.128;11.376;2023-07-31T01:57:04;15.80;99.90
9448;DHT22;4762;48.128;11.376;2023-07-31T01:59:07;15.80;99.90
9448;DHT22;4762;48.128;11.376;2023-07-31T02:01:09;15.80;99.90
9448;DHT22;4762;48.128;11.376;2023-07-31T02:03:12;15.80;99.90
9448;DHT22;4762;48.128;11.376;2023-07-31T02:05:14;15.70;99.90
9448;DHT22;4762;48.128;11.376;2023-07-31T02:07:16;15.70;99.90
9448;DHT22;4762;48.128;11.376;2023-07-31T02:09:19;15.70;99.90
9448;DHT22;4762;48.128;11.376;2023-07-31T02:11:21;15.60;99.90
9448;DHT22;4762;48.128;11.376;2023-07-31T02:13:23;15.60;99.90
9448;DHT22;4762;48.128;11.376;2023-07-31T02:15:25;15.60;99.90
9448;DHT22;4762;48.128;11.376;2023-07-31T02:17:28;15.60;99.90
9448;DHT22;4762;48.128;11.376;2023-07-31T02:19:31;15.60;99.90
9448;DHT22;4762;48.128;11.376;2023-07-31T02:21:34;15.60;99.90
9448;DHT22;4762;48.128;11.376;2023-07-31T02:23:37;15.50;99.90
9448;DHT22;4762;48.128;11.376;2023-07-31T02:25:39;15.50;99.90
9448;DHT22;4762;48.128;11.376;2023-07-31T02:27:42;15.40;99.90
9448;DHT22;4762;48.128;11.376;2023-07-31T02:29:44;15.30;99.90
9448;DHT22;4762;48.128;11.376;2023-07-31T02:31:47;15.30;99.90
9448;DHT22;4762;48.128;11.376;2023-07-31T02:33:50;15.20;99.90
9448;DHT22;4762;48.128;11.376;2023-07-31T02:35:52;15.20;99.90
9448;DHT22;4762;48.128;11.376;2023-07-31T02:37:54;15.10;99.90
9448;DHT22;4762;48.128;11.376;2023-07-31T02:39:56;15.00;99.90
9448;DHT22;4762;48.128;11.376;2023-07-31T02:41:59;14.90;99.90
9448;DHT22;4762;48.128;11.376;2023-07-31T02:44:02;14.90;99.90
9448;DHT22;4762;48.128;11.376;2023-07-31T02:46:04;14.80;99.90
9448;DHT22;4762;48.128;11.376;2023-07-31T02:48:10;14.70;99.90
9448;DHT22;4762;48.128;11.376;2023-07-31T02:50:12;14.70;99.90
9448;DHT22;4762;48.128;11.376;2023-07-31T02:52:15;14.60;99.90
9448;DHT22;4762;48.128;11.376;2023-07-31T02:54:18;14.60;99.90
9448;DHT22;4762;48.128;11.376;2023-07-31T02:56:20;14.50;99.90
9448;DHT22;4762;48.128;11.376;2023-07-31T02:58:22;14.40;99.90
9448;DHT22;4762;48.128;11.376;2023-07-31T03:00:24;14.40;99.90
9448;DHT22;4762;48.128;11.376;2023-07-31T03:02:27;14.50;99.90
9448;DHT22;4762;48.128;11.376;2023-07-31T03:04:31;14.40;99.90
9448;DHT22;4762;48.128;11.376;2023-07-31T03:06:34;14.40;99.90
9448;DHT22;4762;48.128;11.376;2023-07-31T03:08:37;14.40;99.90
9448;DHT22;4762;48.128;11.376;2023-07-31T03:10:40;14.30;99.90
9448;DHT22;4762;48.128;11.376;2023-07-31T03:12:42;14.20;99.90
9448;DHT22;4762;48.128;11.376;2023-07-31T03:14:44;14.20;99.90
9448;DHT22;4762;48.128;11.376;2023-07-31T03:16:47;14.20;99.90
9448;DHT22;4762;48.128;11.376;2023-07-31T03:18:49;14.10;99.90
9448;DHT22;4762;48.128;11.376;2023-07-31T03:20:51;14.00;99.90
9448;DHT22;4762;48.128;11.376;2023-07-31T03:22:54;14.10;99.90
9448;DHT22;4762;48.128;11.376;2023-07-31T03:24:57;14.10;99.90
9448;DHT22;4762;48.128;11.376;2023-07-31T03:26:59;14.10;99.90
9448;DHT22;4762;48.128;11.376;2023-07-31T03:29:02;14.10;99.90
9448;DHT22;4762;48.128;11.376;2023-07-31T03:31:04;14.10;99.90
9448;DHT22;4762;48.128;11.376;2023-07-31T03:33:06;14.10;99.90
9448;DHT22;4762;48.128;11.376;2023-07-31T03:35:08;14.10;99.90
9448;DHT22;4762;48.128;11.376;2023-07-31T03:37:10;14.00;99.90
9448;DHT22;4762;48.128;11.376;2023-07-31T03:39:12;14.00;99.90
9448;DHT22;4762;48.128;11.376;2023-07-31T03:41:15;14.00;99.90
9448;DHT22;4762;48.128;11.376;2023-07-31T03:43:18;13.90;99.90
9448;DHT22;4762;48.128;11.376;2023-07-31T03:45:20;13.90;99.90
9448;DHT22;4762;48.128;11.376;2023-07-31T03:47:22;13.90;99.90
9448;DHT22;4762;48.128;11.376;2023-07-31T03:49:24;13.90;99.90
9448;DHT22;4762;48.128;11.376;2023-07-31T03:51:27;13.90;99.90
9448;DHT22;4762;48.128;11.376;2023-07-31T03:53:29;13.90;99.90
9448;DHT22;4762;48.128;11.376;2023-07-31T03:55:32;14.00;99.90
9448;DHT22;4762;48.128;11.376;2023-07-31T03:57:34;14.00;99.90
9448;DHT22;4762;48.128;11.376;2023-07-31T03:59:37;14.00;99.90
9448;DHT22;4762;48.128;11.376;2023-07-31T04:01:39;14.00;99.90
9448;DHT22;4762;48.128;11.376;2023-07-31T04:03:42;14.00;99.90
9448;DHT22;4762;48.128;11.376;2023-07-31T04:05:44;14.00;99.90
9448;DHT22;4762;48.128;11.376;2023-07-31T04:07:46;13.90;99.90
9448;DHT22;4762;48.128;11.376;2023-07-31T04:09:48;13.90;99.90
9448;DHT22;4762;48.128;11.376;2023-07-31T04:11:50;13.90;99.90
9448;DHT22;4762;48.128;11.376;2023-07-31T04:13:53;13.90;99.90
9448;DHT22;4762;48.128;11.376;2023-07-31T04:15:56;14.00;99.90
9448;DHT22;4762;48.128;11.376;2023-07-31T04:17:58;13.90;99.90
9448;DHT22;4762;48.128;11.376;2023-07-31T04:20:00;13.90;99.90
9448;DHT22;4762;48.128;11.376;2023-07-31T04:22:03;13.90;99.90
9448;DHT22;4762;48.128;11.376;2023-07-31T04:24:06;13.90;99.90
9448;DHT22;4762;48.128;11.376;2023-07-31T04:26:08;13.90;99.90
9448;DHT22;4762;48.128;11.376;2023-07-31T04:28:11;13.90;99.90
9448;DHT22;4762;48.128;11.376;2023-07-31T04:30:14;13.90;99.90
9448;DHT22;4762;48.128;11.376;2023-07-31T04:32:16;14.00;99.90
9448;DHT22;4762;48.128;11.376;2023-07-31T04:34:18;14.00;99.90
9448;DHT22;4762;48.128;11.376;2023-07-31T04:36:21;14.00;99.90
9448;DHT22;4762;48.128;11.376;2023-07-31T04:38:24;14.00;99.90
9448;DHT22;4762;48.128;11.376;2023-07-31T04:40:26;14.00;99.90
9448;DHT22;4762;48.128;11.376;2023-07-31T04:42:28;14.10;99.90
9448;DHT22;4762;48.128;11.376;2023-07-31T04:44:31;14.10;99.90
9448;DHT22;4762;48.128;11.376;2023-07-31T04:46:33;14.10;99.90
9448;DHT22;4762;48.128;11.376;2023-07-31T04:48:36;14.10;99.90
9448;DHT22;4762;48.128;11.376;2023-07-31T04:50:39;14.20;99.90
9448;DHT22;4762;48.128;11.376;2023-07-31T04:52:42;14.20;99.90
9448;DHT22;4762;48.128;11.376;2023-07-31T04:54:44;14.30;99.90
9448;DHT22;4762;48.128;11.376;2023-07-31T04:56:46;14.40;99.90
9448;DHT22;4762;48.128;11.376;2023-07-31T04:58:49;14.50;99.90
9448;DHT22;4762;48.128;11.376;2023-07-31T05:00:52;14.60;99.90
9448;DHT22;4762;48.128;11.376;2023-07-31T05:02:55;14.70;99.90
9448;DHT22;4762;48.128;11.376;2023-07-31T05:04:57;14.80;99.90
9448;DHT22;4762;48.128;11.376;2023-07-31T05:07:00;15.00;99.90
9448;DHT22;4762;48.128;11.376;2023-07-31T05:09:03;15.10;99.90
9448;DHT22;4762;48.128;11.376;2023-07-31T05:11:05;15.20;99.90
9448;DHT22;4762;48.128;11.376;2023-07-31T05:13:07;15.40;99.90
9448;DHT22;4762;48.128;11.376;2023-07-31T05:15:09;15.50;99.90
9448;DHT22;4762;48.128;11.376;2023-07-31T05:17:11;15.70;99.90
9448;DHT22;4762;48.128;11.376;2023-07-31T05:19:14;15.90;99.90
9448;DHT22;4762;48.128;11.376;2023-07-31T05:21:16;16.10;99.90
9448;DHT22;4762;48.128;11.376;2023-07-31T05:23:18;16.30;99.90
9448;DHT22;4762;48.128;11.376;2023-07-31T05:25:20;16.80;99.90
9448;DHT22;4762;48.128;11.376;2023-07-31T05:27:23;19.10;97.70
9448;DHT22;4762;48.128;11.376;2023-07-31T05:29:25;20.10;87.10
9448;DHT22;4762;48.128;11.376;2023-07-31T05:31:27;19.20;89.00
9448;DHT22;4762;48.128;11.376;2023-07-31T05:33:29;18.60;91.20
9448;DHT22;4762;48.128;11.376;2023-07-31T05:35:32;18.30;91.60
9448;DHT22;4762;48.128;11.376;2023-07-31T05:37:34;19.30;89.40
9448;DHT22;4762;48.128;11.376;2023-07-31T05:39:37;19.90;86.20
9448;DHT22;4762;48.128;11.376;2023-07-31T05:41:39;20.70;82.50
9448;DHT22;4762;48.128;11.376;2023-07-31T05:43:42;19.80;81.90
9448;DHT22;4762;48.128;11.376;2023-07-31T05:45:44;19.30;83.80
9448;DHT22;4762;48.128;11.376;2023-07-31T05:47:46;18.60;86.30
9448;DHT22;4762;48.128;11.376;2023-07-31T05:49:48;18.30;90.70
9448;DHT22;4762;48.128;11.376;2023-07-31T05:51:51;18.10;94.70
9448;DHT22;4762;48.128;11.376;2023-07-31T05:53:53;18.10;96.10
9448;DHT22;4762;48.128;11.376;2023-07-31T05:55:56;18.10;94.70
9448;DHT22;4762;48.128;11.376;2023-07-31T05:57:58;18.20;95.90
9448;DHT22;4762;48.128;11.376;2023-07-31T06:00:01;18.40;92.70
9448;DHT22;4762;48.128;11.376;2023-07-31T06:02:02;19.00;90.30
9448;DHT22;4762;48.128;11.376;2023-07-31T06:04:06;19.80;85.80
9448;DHT22;4762;48.128;11.376;2023-07-31T06:06:08;20.50;85.90
9448;DHT22;4762;48.128;11.376;2023-07-31T06:08:11;20.50;81.20
9448;DHT22;4762;48.128;11.376;2023-07-31T06:10:13;20.00;77.40
9448;DHT22;4762;48.128;11.376;2023-07-31T06:12:16;19.40;84.20
9448;DHT22;4762;48.128;11.376;2023-07-31T06:14:18;19.30;83.50
9448;DHT22;4762;48.128;11.376;2023-07-31T06:16:21;19.30;84.40
9448;DHT22;4762;48.128;11.376;2023-07-31T06:18:23;19.30;86.20
9448;DHT22;4762;48.128;11.376;2023-07-31T06:20:26;19.40;84.50
9448;DHT22;4762;48.128;11.376;2023-07-31T06:22:29;19.50;81.70
9448;DHT22;4762;48.128;11.376;2023-07-31T06:24:31;19.10;83.80
9448;DHT22;4762;48.128;11.376;2023-07-31T06:26:34;18.80;84.70
9448;DHT22;4762;48.128;11.376;2023-07-31T06:28:37;18.70;85.50
9448;DHT22;4762;48.128;11.376;2023-07-31T06:30:39;18.60;87.10
9448;DHT22;4762;48.128;11.376;2023-07-31T06:32:42;18.60;89.60
9448;DHT22;4762;48.128;11.376;2023-07-31T06:34:45;18.60;89.60
9448;DHT22;4762;48.128;11.376;2023-07-31T06:36:47;18.60;88.20
9448;DHT22;4762;48.128;11.376;2023-07-31T06:38:52;18.70;87.40
9448;DHT22;4762;48.128;11.376;2023-07-31T06:40:54;18.80;87.30
9448;DHT22;4762;48.128;11.376;2023-07-31T06:42:56;19.00;89.70
9448;DHT22;4762;48.128;11.376;2023-07-31T06:44:58;19.10;85.60
9448;DHT22;4762;48.128;11.376;2023-07-31T06:47:00;19.10;86.50
9448;DHT22;4762;48.128;11.376;2023-07-31T06:49:03;19.00;84.50
9448;DHT22;4762;48.128;11.376;2023-07-31T06:51:06;19.00;86.00
9448;DHT22;4762;48.128;11.376;2023-07-31T06:53:08;19.20;84.10
9448;DHT22;4762;48.128;11.376;2023-07-31T06:55:19;19.30;83.60
9448;DHT22;4762;48.128;11.376;2023-07-31T06:57:20;19.50;83.30
9448;DHT22;4762;48.128;11.376;2023-07-31T06:59:25;19.70;84.40
9448;DHT22;4762;48.128;11.376;2023-07-31T07:01:27;20.00;82.20
9448;DHT22;4762;48.128;11.376;2023-07-31T07:03:30;19.60;80.80
9448;DHT22;4762;48.128;11.376;2023-07-31T07:05:34;19.60;81.80
9448;DHT22;4762;48.128;11.376;2023-07-31T07:07:37;19.60;81.70
9448;DHT22;4762;48.128;11.376;2023-07-31T07:09:40;19.70;80.60
9448;DHT22;4762;48.128;11.376;2023-07-31T07:11:42;19.40;80.80
9448;DHT22;4762;48.128;11.376;2023-07-31T07:13:44;19.40;81.90
9448;DHT22;4762;48.128;11.376;2023-07-31T07:15:48;19.90;84.20
9448;DHT22;4762;48.128;11.376;2023-07-31T07:17:50;20.50;82.60
9448;DHT22;4762;48.128;11.376;2023-07-31T07:19:53;21.20;75.60
9448;DHT22;4762;48.128;11.376;2023-07-31T07:21:55;21.50;72.30
9448;DHT22;4762;48.128;11.376;2023-07-31T07:23:59;21.60;70.90
9448;DHT22;4762;48.128;11.376;2023-07-31T07:26:01;21.50;71.70
9448;DHT22;4762;48.128;11.376;2023-07-31T07:28:04;21.30;71.10
9448;DHT22;4762;48.128;11.376;2023-07-31T07:30:06;21.00;72.80
9448;DHT22;4762;48.128;11.376;2023-07-31T07:32:09;21.20;70.70
9448;DHT22;4762;48.128;11.376;2023-07-31T07:34:13;21.50;72.30
9448;DHT22;4762;48.128;11.376;2023-07-31T07:36:16;21.80;70.80
9448;DHT22;4762;48.128;11.376;2023-07-31T07:38:18;21.70;72.20
9448;DHT22;4762;48.128;11.376;2023-07-31T07:40:20;21.20;72.10
9448;DHT22;4762;48.128;11.376;2023-07-31T07:42:22;20.90;71.50
9448;DHT22;4762;48.128;11.376;2023-07-31T07:44:25;21.00;70.50
9448;DHT22;4762;48.128;11.376;2023-07-31T07:46:27;21.40;68.80
9448;DHT22;4762;48.128;11.376;2023-07-31T07:48:29;21.10;68.60
9448;DHT22;4762;48.128;11.376;2023-07-31T07:50:32;21.40;67.40
9448;DHT22;4762;48.128;11.376;2023-07-31T07:52:35;21.60;67.20
9448;DHT22;4762;48.128;11.376;2023-07-31T07:54:37;22.70;63.60
9448;DHT22;4762;48.128;11.376;2023-07-31T07:56:39;22.90;64.50
9448;DHT22;4762;48.128;11.376;2023-07-31T07:58:42;23.50;63.00
9448;DHT22;4762;48.128;11.376;2023-07-31T08:00:53;24.10;59.30
9448;DHT22;4762;48.128;11.376;2023-07-31T08:02:59;24.00;60.10
9448;DHT22;4762;48.128;11.376;2023-07-31T08:05:01;25.10;59.10
9448;DHT22;4762;48.128;11.376;2023-07-31T08:07:04;25.30;59.20
9448;DHT22;4762;48.128;11.376;2023-07-31T08:09:06;24.10;56.50
9448;DHT22;4762;48.128;11.376;2023-07-31T08:11:10;23.40;58.20
9448;DHT22;4762;48.128;11.376;2023-07-31T08:13:13;23.00;59.70
9448;DHT22;4762;48.128;11.376;2023-07-31T08:15:15;23.70;63.60
9448;DHT22;4762;48.128;11.376;2023-07-31T08:17:18;23.90;56.80
9448;DHT22;4762;48.128;11.376;2023-07-31T08:19:21;24.00;61.00
9448;DHT22;4762;48.128;11.376;2023-07-31T08:21:23;24.10;56.70
9448;DHT22;4762;48.128;11.376;2023-07-31T08:23:25;23.90;56.70
9448;DHT22;4762;48.128;11.376;2023-07-31T08:25:27;23.40;58.10
9448;DHT22;4762;48.128;11.376;2023-07-31T08:27:29;23.00;58.50
9448;DHT22;4762;48.128;11.376;2023-07-31T08:29:32;22.60;58.00
9448;DHT22;4762;48.128;11.376;2023-07-31T08:31:40;22.30;58.50
9448;DHT22;4762;48.128;11.376;2023-07-31T08:33:42;22.20;61.00
9448;DHT22;4762;48.128;11.376;2023-07-31T08:35:46;21.90;60.40
9448;DHT22;4762;48.128;11.376;2023-07-31T08:37:48;21.50;63.20
9448;DHT22;4762;48.128;11.376;2023-07-31T08:39:50;21.40;62.10
9448;DHT22;4762;48.128;11.376;2023-07-31T08:41:57;21.60;61.20
9448;DHT22;4762;48.128;11.376;2023-07-31T08:43:56;21.50;62.00
9448;DHT22;4762;48.128;11.376;2023-07-31T08:45:58;21.40;63.00
9448;DHT22;4762;48.128;11.376;2023-07-31T08:48:00;21.40;62.40
9448;DHT22;4762;48.128;11.376;2023-07-31T08:50:03;21.20;62.60
9448;DHT22;4762;48.128;11.376;2023-07-31T08:52:06;21.00;63.40
9448;DHT22;4762;48.128;11.376;2023-07-31T08:54:08;21.50;66.20
9448;DHT22;4762;48.128;11.376;2023-07-31T08:56:10;21.70;67.00
9448;DHT22;4762;48.128;11.376;2023-07-31T08:58:17;21.30;66.40
9448;DHT22;4762;48.128;11.376;2023-07-31T09:00:19;21.60;65.20
9448;DHT22;4762;48.128;11.376;2023-07-31T09:02:22;22.00;62.90
9448;DHT22;4762;48.128;11.376;2023-07-31T09:04:24;22.70;60.50
9448;DHT22;4762;48.128;11.376;2023-07-31T09:06:27;23.20;59.20
9448;DHT22;4762;48.128;11.376;2023-07-31T09:08:30;23.10;59.40
9448;DHT22;4762;48.128;11.376;2023-07-31T09:10:32;23.50;58.90
9448;DHT22;4762;48.128;11.376;2023-07-31T09:12:35;24.00;55.80
9448;DHT22;4762;48.128;11.376;2023-07-31T09:14:38;23.70;55.00
9448;DHT22;4762;48.128;11.376;2023-07-31T09:16:51;23.70;55.80
9448;DHT22;4762;48.128;11.376;2023-07-31T09:18:54;23.70;56.10
9448;DHT22;4762;48.128;11.376;2023-07-31T09:21:01;23.80;55.20
9448;DHT22;4762;48.128;11.376;2023-07-31T09:23:13;24.10;54.90
9448;DHT22;4762;48.128;11.376;2023-07-31T09:25:17;24.80;54.00
9448;DHT22;4762;48.128;11.376;2023-07-31T09:27:19;25.50;55.30
9448;DHT22;4762;48.128;11.376;2023-07-31T09:29:23;26.10;53.00
9448;DHT22;4762;48.128;11.376;2023-07-31T09:31:31;24.90;51.10
9448;DHT22;4762;48.128;11.376;2023-07-31T09:33:54;24.80;50.80
9448;DHT22;4762;48.128;11.376;2023-07-31T09:35:42;24.90;53.40
9448;DHT22;4762;48.128;11.376;2023-07-31T09:37:47;24.80;54.10
9448;DHT22;4762;48.128;11.376;2023-07-31T09:39:48;25.20;52.50
9448;DHT22;4762;48.128;11.376;2023-07-31T09:41:54;25.30;53.70
9448;DHT22;4762;48.128;11.376;2023-07-31T09:43:56;25.90;49.60
9448;DHT22;4762;48.128;11.376;2023-07-31T09:46:00;26.10;50.30
9448;DHT22;4762;48.128;11.376;2023-07-31T09:48:02;26.50;50.70
9448;DHT22;4762;48.128;11.376;2023-07-31T09:50:07;26.60;49.80
9448;DHT22;4762;48.128;11.376;2023-07-31T09:52:11;25.80;47.60
9448;DHT22;4762;48.128;11.376;2023-07-31T09:54:12;26.40;50.10
9448;DHT22;4762;48.128;11.376;2023-07-31T09:56:15;27.20;49.10
9448;DHT22;4762;48.128;11.376;2023-07-31T09:58:18;26.40;48.80
9448;DHT22;4762;48.128;11.376;2023-07-31T10:00:22;26.60;47.60
9448;DHT22;4762;48.128;11.376;2023-07-31T10:02:27;26.50;48.90
9448;DHT22;4762;48.128;11.376;2023-07-31T10:04:29;27.20;52.20
9448;DHT22;4762;48.128;11.376;2023-07-31T10:06:33;27.70;49.30
9448;DHT22;4762;48.128;11.376;2023-07-31T10:08:35;26.80;47.70
9448;DHT22;4762;48.128;11.376;2023-07-31T10:10:40;26.70;47.80
9448;DHT22;4762;48.128;11.376;2023-07-31T10:12:41;25.80;46.50
9448;DHT22;4762;48.128;11.376;2023-07-31T10:14:45;27.10;47.30
9448;DHT22;4762;48.128;11.376;2023-07-31T10:16:49;26.40;47.30
9448;DHT22;4762;48.128;11.376;2023-07-31T10:18:51;26.60;48.50
9448;DHT22;4762;48.128;11.376;2023-07-31T10:20:54;27.30;46.90
9448;DHT22;4762;48.128;11.376;2023-07-31T10:22:57;27.40;46.20
9448;DHT22;4762;48.128;11.376;2023-07-31T10:24:59;28.00;46.20
9448;DHT22;4762;48.128;11.376;2023-07-31T10:27:04;28.30;44.40
9448;DHT22;4762;48.128;11.376;2023-07-31T10:29:06;27.80;43.80
9448;DHT22;4762;48.128;11.376;2023-07-31T10:31:09;27.50;43.20
9448;DHT22;4762;48.128;11.376;2023-07-31T10:33:11;26.10;46.00
9448;DHT22;4762;48.128;11.376;2023-07-31T10:35:14;25.90;46.80
9448;DHT22;4762;48.128;11.376;2023-07-31T10:37:22;25.70;48.20
9448;DHT22;4762;48.128;11.376;2023-07-31T10:39:34;25.80;47.80
9448;DHT22;4762;48.128;11.376;2023-07-31T10:41:35;26.00;46.70
9448;DHT22;4762;48.128;11.376;2023-07-31T10:43:38;25.20;47.50
9448;DHT22;4762;48.128;11.376;2023-07-31T10:45:42;25.30;49.00
9448;DHT22;4762;48.128;11.376;2023-07-31T10:47:47;25.30;49.20
9448;DHT22;4762;48.128;11.376;2023-07-31T10:49:49;25.10;47.80
9448;DHT22;4762;48.128;11.376;2023-07-31T10:51:56;25.10;48.40
9448;DHT22;4762;48.128;11.376;2023-07-31T10:54:11;24.90;49.10
9448;DHT22;4762;48.128;11.376;2023-07-31T10:56:12;24.40;49.60
9448;DHT22;4762;48.128;11.376;2023-07-31T10:58:15;24.50;52.10
9448;DHT22;4762;48.128;11.376;2023-07-31T11:00:19;24.70;52.50
9448;DHT22;4762;48.128;11.376;2023-07-31T11:02:25;24.80;50.40
9448;DHT22;4762;48.128;11.376;2023-07-31T11:04:26;25.10;49.10
9448;DHT22;4762;48.128;11.376;2023-07-31T11:06:29;25.90;49.60
9448;DHT22;4762;48.128;11.376;2023-07-31T11:08:33;27.00;46.50
9448;DHT22;4762;48.128;11.376;2023-07-31T11:10:36;27.30;44.60
9448;DHT22;4762;48.128;11.376;2023-07-31T11:12:39;27.10;46.10
9448;DHT22;4762;48.128;11.376;2023-07-31T11:14:42;28.00;45.50
9448;DHT22;4762;48.128;11.376;2023-07-31T11:16:45;28.50;45.30
9448;DHT22;4762;48.128;11.376;2023-07-31T11:18:48;27.90;44.40
9448;DHT22;4762;48.128;11.376;2023-07-31T11:20:50;27.90;45.60
9448;DHT22;4762;48.128;11.376;2023-07-31T11:22:52;28.10;44.70
9448;DHT22;4762;48.128;11.376;2023-07-31T11:24:55;27.80;42.60
9448;DHT22;4762;48.128;11.376;2023-07-31T11:26:58;28.50;44.30
9448;DHT22;4762;48.128;11.376;2023-07-31T11:29:01;29.10;43.30
9448;DHT22;4762;48.128;11.376;2023-07-31T11:31:04;28.60;41.60
9448;DHT22;4762;48.128;11.376;2023-07-31T11:33:08;28.10;43.10
9448;DHT22;4762;48.128;11.376;2023-07-31T11:35:12;26.60;44.70
9448;DHT22;4762;48.128;11.376;2023-07-31T11:37:14;26.50;44.40
9448;DHT22;4762;48.128;11.376;2023-07-31T11:39:16;26.70;44.90
9448;DHT22;4762;48.128;11.376;2023-07-31T11:41:19;26.50;45.80
9448;DHT22;4762;48.128;11.376;2023-07-31T11:43:21;27.10;45.20
9448;DHT22;4762;48.128;11.376;2023-07-31T11:45:25;27.30;46.00
9448;DHT22;4762;48.128;11.376;2023-07-31T11:47:26;27.60;42.30
9448;DHT22;4762;48.128;11.376;2023-07-31T11:49:30;28.10;42.30
9448;DHT22;4762;48.128;11.376;2023-07-31T11:51:32;28.20;42.90
9448;DHT22;4762;48.128;11.376;2023-07-31T11:53:38;28.50;40.60
9448;DHT22;4762;48.128;11.376;2023-07-31T11:55:39;28.40;41.60
9448;DHT22;4762;48.128;11.376;2023-07-31T11:57:43;28.20;41.50
9448;DHT22;4762;48.128;11.376;2023-07-31T11:59:45;28.40;40.10
9448;DHT22;4762;48.128;11.376;2023-07-31T12:01:48;28.10;39.10
9448;DHT22;4762;48.128;11.376;2023-07-31T12:03:50;27.80;39.90
9448;DHT22;4762;48.128;11.376;2023-07-31T12:05:53;28.40;41.00
9448;DHT22;4762;48.128;11.376;2023-07-31T12:07:55;27.80;41.90
9448;DHT22;4762;48.128;11.376;2023-07-31T12:09:58;27.10;42.70
9448;DHT22;4762;48.128;11.376;2023-07-31T12:12:00;26.50;42.40
9448;DHT22;4762;48.128;11.376;2023-07-31T12:14:06;26.60;44.10
9448;DHT22;4762;48.128;11.376;2023-07-31T12:16:09;26.60;46.40
9448;DHT22;4762;48.128;11.376;2023-07-31T12:18:13;27.00;43.10
9448;DHT22;4762;48.128;11.376;2023-07-31T12:20:16;27.40;43.70
9448;DHT22;4762;48.128;11.376;2023-07-31T12:22:19;27.40;42.90
9448;DHT22;4762;48.128;11.376;2023-07-31T12:24:20;27.60;43.80
9448;DHT22;4762;48.128;11.376;2023-07-31T12:26:24;27.30;42.50
9448;DHT22;4762;48.128;11.376;2023-07-31T12:28:26;27.50;44.00
9448;DHT22;4762;48.128;11.376;2023-07-31T12:30:29;27.60;42.80
9448;DHT22;4762;48.128;11.376;2023-07-31T12:32:31;28.00;43.10
9448;DHT22;4762;48.128;11.376;2023-07-31T12:34:35;26.90;46.10
9448;DHT22;4762;48.128;11.376;2023-07-31T12:36:37;26.60;44.40
9448;DHT22;4762;48.128;11.376;2023-07-31T12:38:41;26.70;46.60
9448;DHT22;4762;48.128;11.376;2023-07-31T12:40:43;27.00;45.70
9448;DHT22;4762;48.128;11.376;2023-07-31T12:42:45;27.30;45.80
9448;DHT22;4762;48.128;11.376;2023-07-31T12:44:47;28.20;43.00
9448;DHT22;4762;48.128;11.376;2023-07-31T12:46:50;28.50;45.30
9448;DHT22;4762;48.128;11.376;2023-07-31T12:48:53;29.00;41.50
9448;DHT22;4762;48.128;11.376;2023-07-31T12:50:56;29.00;41.00
9448;DHT22;4762;48.128;11.376;2023-07-31T12:52:59;28.30;41.50
9448;DHT22;4762;48.128;11.376;2023-07-31T12:55:03;27.60;40.70
9448;DHT22;4762;48.128;11.376;2023-07-31T12:57:06;28.10;41.50
9448;DHT22;4762;48.128;11.376;2023-07-31T12:59:09;27.80;42.10
9448;DHT22;4762;48.128;11.376;2023-07-31T13:01:15;28.70;40.00
9448;DHT22;4762;48.128;11.376;2023-07-31T13:03:18;29.10;41.40
9448;DHT22;4762;48.128;11.376;2023-07-31T13:05:21;29.60;38.30
9448;DHT22;4762;48.128;11.376;2023-07-31T13:07:24;29.60;38.80
9448;DHT22;4762;48.128;11.376;2023-07-31T13:09:28;28.10;39.50